sensor_id;sensor_type;location;lat;lon;timestamp;P1;durP1;ratioP1;P2;durP2;ratioP2
13566;SDS011;6855;48.112;11.298;2023-05-13T00:02:18;5.13;;;4.50;;
13566;SDS011;6855;48.112;11.298;2023-05-13T00:04:46;6.07;;;4.63;;
13566;SDS011;6855;48.112;11.298;2023-05-13T00:07:13;6.80;;;4.30;;
13566;SDS011;6855;48.112;11.298;2023-05-13T00:09:40;9.30;;;4.97;;
13566;SDS011;6855;48.112;11.298;2023-05-13T00:12:07;4.43;;;4.03;;
13566;SDS011;6855;48.112;11.298;2023-05-13T00:14:35;4.70;;;4.00;;
13566;SDS011;6855;48.112;11.298;2023-05-13T00:17:02;3.77;;;3.37;;
13566;SDS011;6855;48.112;11.298;2023-05-13T00:19:30;4.77;;;4.07;;
13566;SDS011;6855;48.112;11.298;2023-05-13T00:21:58;4.07;;;3.67;;
13566;SDS011;6855;48.112;11.298;2023-05-13T00:24:25;5.43;;;4.30;;
13566;SDS011;6855;48.112;11.298;2023-05-13T00:26:52;5.10;;;3.80;;
13566;SDS011;6855;48.112;11.298;2023-05-13T00:29:19;6.83;;;3.50;;
13566;SDS011;6855;48.112;11.298;2023-05-13T00:31:46;4.10;;;3.70;;
13566;SDS011;6855;48.112;11.298;2023-05-13T00:34:14;5.07;;;4.20;;
13566;SDS011;6855;48.112;11.298;2023-05-13T00:36:43;5.60;;;4.63;;
13566;SDS011;6855;48.112;11.298;2023-05-13T00:39:11;5.20;;;4.63;;
13566;SDS011;6855;48.112;11.298;2023-05-13T00:41:38;6.47;;;4.97;;
13566;SDS011;6855;48.112;11.298;2023-05-13T00:44:05;6.33;;;4.90;;
13566;SDS011;6855;48.112;11.298;2023-05-13T00:46:32;4.87;;;4.37;;
13566;SDS011;6855;48.112;11.298;2023-05-13T00:48:59;9.77;;;5.20;;
13566;SDS011;6855;48.112;11.298;2023-05-13T00:51:27;7.00;;;5.17;;
13566;SDS011;6855;48.112;11.298;2023-05-13T00:53:55;7.33;;;5.87;;
13566;SDS011;6855;48.112;11.298;2023-05-13T00:56:24;6.60;;;5.10;;
13566;SDS011;6855;48.112;11.298;2023-05-13T00:58:52;5.90;;;4.93;;
13566;SDS011;6855;48.112;11.298;2023-05-13T01:01:20;6.00;;;5.10;;
13566;SDS011;6855;48.112;11.298;2023-05-13T01:03:52;8.10;;;5.27;;
13566;SDS011;6855;48.112;11.298;2023-05-13T01:06:24;6.50;;;5.00;;
13566;SDS011;6855;48.112;11.298;2023-05-13T01:08:55;6.73;;;5.10;;
13566;SDS011;6855;48.112;11.298;2023-05-13T01:11:26;11.37;;;5.73;;
13566;SDS011;6855;48.112;11.298;2023-05-13T01:13:56;6.40;;;5.33;;
13566;SDS011;6855;48.112;11.298;2023-05-13T01:16:26;6.50;;;5.80;;
13566;SDS011;6855;48.112;11.298;2023-05-13T01:18:55;7.47;;;5.60;;
13566;SDS011;6855;48.112;11.298;2023-05-13T01:21:25;8.83;;;5.83;;
13566;SDS011;6855;48.112;11.298;2023-05-13T01:23:52;6.43;;;4.90;;
13566;SDS011;6855;48.112;11.298;2023-05-13T01:26:19;7.33;;;5.40;;
13566;SDS011;6855;48.112;11.298;2023-05-13T01:28:47;9.50;;;6.50;;
13566;SDS011;6855;48.112;11.298;2023-05-13T01:31:14;7.23;;;6.00;;
13566;SDS011;6855;48.112;11.298;2023-05-13T01:33:42;6.83;;;5.60;;
13566;SDS011;6855;48.112;11.298;2023-05-13T01:36:09;8.57;;;6.50;;
13566;SDS011;6855;48.112;11.298;2023-05-13T01:38:39;7.30;;;5.57;;
13566;SDS011;6855;48.112;11.298;2023-05-13T01:41:06;8.77;;;6.27;;
13566;SDS011;6855;48.112;11.298;2023-05-13T01:43:34;7.03;;;5.47;;
13566;SDS011;6855;48.112;11.298;2023-05-13T01:46:01;6.03;;;5.30;;
13566;SDS011;6855;48.112;11.298;2023-05-13T01:48:28;6.47;;;4.93;;
13566;SDS011;6855;48.112;11.298;2023-05-13T01:50:55;6.67;;;5.20;;
13566;SDS011;6855;48.112;11.298;2023-05-13T01:53:22;7.93;;;5.37;;
13566;SDS011;6855;48.112;11.298;2023-05-13T01:55:51;8.03;;;6.30;;
13566;SDS011;6855;48.112;11.298;2023-05-13T01:58:18;9.17;;;6.40;;
13566;SDS011;6855;48.112;11.298;2023-05-13T02:00:45;11.00;;;6.97;;
13566;SDS011;6855;48.112;11.298;2023-05-13T02:03:12;10.70;;;6.80;;
13566;SDS011;6855;48.112;11.298;2023-05-13T02:05:40;11.23;;;8.10;;
13566;SDS011;6855;48.112;11.298;2023-05-13T02:08:07;10.20;;;7.00;;
13566;SDS011;6855;48.112;11.298;2023-05-13T02:10:34;11.40;;;8.30;;
13566;SDS011;6855;48.112;11.298;2023-05-13T02:13:03;11.43;;;8.00;;
13566;SDS011;6855;48.112;11.298;2023-05-13T02:15:33;16.33;;;7.90;;
13566;SDS011;6855;48.112;11.298;2023-05-13T02:18:00;12.20;;;7.47;;
13566;SDS011;6855;48.112;11.298;2023-05-13T02:20:27;12.50;;;8.00;;
13566;SDS011;6855;48.112;11.298;2023-05-13T02:22:55;12.97;;;8.20;;
13566;SDS011;6855;48.112;11.298;2023-05-13T02:25:22;13.80;;;8.90;;
13566;SDS011;6855;48.112;11.298;2023-05-13T02:27:49;12.50;;;9.77;;
13566;SDS011;6855;48.112;11.298;2023-05-13T02:30:18;11.93;;;8.13;;
13566;SDS011;6855;48.112;11.298;2023-05-13T02:32:45;16.03;;;9.63;;
13566;SDS011;6855;48.112;11.298;2023-05-13T02:35:12;12.57;;;8.93;;
13566;SDS011;6855;48.112;11.298;2023-05-13T02:37:40;13.87;;;9.87;;
13566;SDS011;6855;48.112;11.298;2023-05-13T02:40:08;13.10;;;8.80;;
13566;SDS011;6855;48.112;11.298;2023-05-13T02:42:37;14.03;;;8.90;;
13566;SDS011;6855;48.112;11.298;2023-05-13T02:45:05;14.90;;;9.00;;
13566;SDS011;6855;48.112;11.298;2023-05-13T02:47:34;14.80;;;9.60;;
13566;SDS011;6855;48.112;11.298;2023-05-13T02:50:02;14.10;;;9.27;;
13566;SDS011;6855;48.112;11.298;2023-05-13T02:52:30;13.67;;;9.23;;
13566;SDS011;6855;48.112;11.298;2023-05-13T02:54:59;18.50;;;10.80;;
13566;SDS011;6855;48.112;11.298;2023-05-13T02:57:26;24.00;;;13.10;;
13566;SDS011;6855;48.112;11.298;2023-05-13T02:59:54;19.10;;;11.10;;
13566;SDS011;6855;48.112;11.298;2023-05-13T03:02:21;16.27;;;9.70;;
13566;SDS011;6855;48.112;11.298;2023-05-13T03:04:50;14.13;;;9.80;;
13566;SDS011;6855;48.112;11.298;2023-05-13T03:07:18;15.03;;;9.63;;
13566;SDS011;6855;48.112;11.298;2023-05-13T03:09:48;13.80;;;9.77;;
13566;SDS011;6855;48.112;11.298;2023-05-13T03:12:16;17.00;;;9.93;;
13566;SDS011;6855;48.112;11.298;2023-05-13T03:14:44;19.40;;;10.90;;
13566;SDS011;6855;48.112;11.298;2023-05-13T03:17:12;20.30;;;9.70;;
13566;SDS011;6855;48.112;11.298;2023-05-13T03:19:39;15.80;;;9.30;;
13566;SDS011;6855;48.112;11.298;2023-05-13T03:22:07;15.13;;;10.17;;
13566;SDS011;6855;48.112;11.298;2023-05-13T03:24:35;16.93;;;9.83;;
13566;SDS011;6855;48.112;11.298;2023-05-13T03:27:02;15.00;;;10.63;;
13566;SDS011;6855;48.112;11.298;2023-05-13T03:29:29;14.20;;;9.50;;
13566;SDS011;6855;48.112;11.298;2023-05-13T03:31:57;22.50;;;10.87;;
13566;SDS011;6855;48.112;11.298;2023-05-13T03:34:24;16.93;;;10.93;;
13566;SDS011;6855;48.112;11.298;2023-05-13T03:36:51;19.20;;;11.07;;
13566;SDS011;6855;48.112;11.298;2023-05-13T03:39:20;13.93;;;10.30;;
13566;SDS011;6855;48.112;11.298;2023-05-13T03:41:48;15.00;;;9.67;;
13566;SDS011;6855;48.112;11.298;2023-05-13T03:44:15;19.23;;;10.50;;
13566;SDS011;6855;48.112;11.298;2023-05-13T03:46:42;16.30;;;10.80;;
13566;SDS011;6855;48.112;11.298;2023-05-13T03:49:09;17.40;;;11.27;;
13566;SDS011;6855;48.112;11.298;2023-05-13T03:51:37;18.70;;;11.10;;
13566;SDS011;6855;48.112;11.298;2023-05-13T03:54:04;19.37;;;11.60;;
13566;SDS011;6855;48.112;11.298;2023-05-13T03:56:32;16.80;;;10.70;;
13566;SDS011;6855;48.112;11.298;2023-05-13T03:59:00;19.33;;;11.37;;
13566;SDS011;6855;48.112;11.298;2023-05-13T04:01:27;17.40;;;11.37;;
13566;SDS011;6855;48.112;11.298;2023-05-13T04:03:54;20.27;;;12.90;;
13566;SDS011;6855;48.112;11.298;2023-05-13T04:06:21;18.10;;;10.83;;
13566;SDS011;6855;48.112;11.298;2023-05-13T04:08:49;16.80;;;11.57;;
13566;SDS011;6855;48.112;11.298;2023-05-13T04:11:17;21.50;;;12.13;;
13566;SDS011;6855;48.112;11.298;2023-05-13T04:13:45;18.43;;;11.40;;
13566;SDS011;6855;48.112;11.298;2023-05-13T04:16:12;17.90;;;11.53;;
13566;SDS011;6855;48.112;11.298;2023-05-13T04:18:39;16.73;;;10.80;;
13566;SDS011;6855;48.112;11.298;2023-05-13T04:21:07;17.37;;;11.77;;
13566;SDS011;6855;48.112;11.298;2023-05-13T04:23:34;19.53;;;12.13;;
13566;SDS011;6855;48.112;11.298;2023-05-13T04:26:01;18.53;;;11.93;;
13566;SDS011;6855;48.112;11.298;2023-05-13T04:28:30;19.47;;;12.40;;
13566;SDS011;6855;48.112;11.298;2023-05-13T04:31:00;19.17;;;12.10;;
13566;SDS011;6855;48.112;11.298;2023-05-13T04:33:27;20.07;;;12.33;;
13566;SDS011;6855;48.112;11.298;2023-05-13T04:35:55;22.47;;;13.17;;
13566;SDS011;6855;48.112;11.298;2023-05-13T04:38:22;18.80;;;12.77;;
13566;SDS011;6855;48.112;11.298;2023-05-13T04:40:49;20.67;;;11.23;;
13566;SDS011;6855;48.112;11.298;2023-05-13T04:43:17;21.10;;;13.27;;
13566;SDS011;6855;48.112;11.298;2023-05-13T04:45:45;17.53;;;12.17;;
13566;SDS011;6855;48.112;11.298;2023-05-13T04:48:14;19.63;;;11.47;;
13566;SDS011;6855;48.112;11.298;2023-05-13T04:50:43;17.90;;;11.67;;
13566;SDS011;6855;48.112;11.298;2023-05-13T04:53:11;17.87;;;12.57;;
13566;SDS011;6855;48.112;11.298;2023-05-13T04:55:38;23.93;;;14.67;;
13566;SDS011;6855;48.112;11.298;2023-05-13T04:58:05;22.97;;;11.57;;
13566;SDS011;6855;48.112;11.298;2023-05-13T05:00:32;18.10;;;11.60;;
13566;SDS011;6855;48.112;11.298;2023-05-13T05:03:00;20.30;;;14.15;;
13566;SDS011;6855;48.112;11.298;2023-05-13T05:05:28;21.80;;;15.33;;
13566;SDS011;6855;48.112;11.298;2023-05-13T05:07:55;16.00;;;11.50;;
13566;SDS011;6855;48.112;11.298;2023-05-13T05:10:22;19.30;;;11.80;;
13566;SDS011;6855;48.112;11.298;2023-05-13T05:12:50;18.50;;;11.60;;
13566;SDS011;6855;48.112;11.298;2023-05-13T05:15:17;18.40;;;11.73;;
13566;SDS011;6855;48.112;11.298;2023-05-13T05:17:45;17.10;;;10.80;;
13566;SDS011;6855;48.112;11.298;2023-05-13T05:20:12;18.70;;;11.30;;
13566;SDS011;6855;48.112;11.298;2023-05-13T05:22:40;17.60;;;12.13;;
13566;SDS011;6855;48.112;11.298;2023-05-13T05:25:08;16.17;;;11.50;;
13566;SDS011;6855;48.112;11.298;2023-05-13T05:27:35;19.43;;;11.03;;
13566;SDS011;6855;48.112;11.298;2023-05-13T05:30:03;16.27;;;10.17;;
13566;SDS011;6855;48.112;11.298;2023-05-13T05:32:30;14.67;;;10.53;;
13566;SDS011;6855;48.112;11.298;2023-05-13T05:34:58;16.60;;;10.73;;
13566;SDS011;6855;48.112;11.298;2023-05-13T05:37:26;15.57;;;10.33;;
13566;SDS011;6855;48.112;11.298;2023-05-13T05:39:54;17.23;;;10.80;;
13566;SDS011;6855;48.112;11.298;2023-05-13T05:42:21;15.83;;;10.53;;
13566;SDS011;6855;48.112;11.298;2023-05-13T05:44:49;15.43;;;10.13;;
13566;SDS011;6855;48.112;11.298;2023-05-13T05:47:16;16.17;;;11.20;;
13566;SDS011;6855;48.112;11.298;2023-05-13T05:49:43;13.47;;;10.17;;
13566;SDS011;6855;48.112;11.298;2023-05-13T05:52:10;16.30;;;9.83;;
13566;SDS011;6855;48.112;11.298;2023-05-13T05:54:37;16.67;;;10.20;;
13566;SDS011;6855;48.112;11.298;2023-05-13T05:57:06;15.47;;;9.80;;
13566;SDS011;6855;48.112;11.298;2023-05-13T05:59:33;11.77;;;9.03;;
13566;SDS011;6855;48.112;11.298;2023-05-13T06:02:00;16.83;;;10.50;;
13566;SDS011;6855;48.112;11.298;2023-05-13T06:04:28;16.30;;;10.77;;
13566;SDS011;6855;48.112;11.298;2023-05-13T06:06:55;16.20;;;10.50;;
13566;SDS011;6855;48.112;11.298;2023-05-13T06:09:22;14.67;;;10.00;;
13566;SDS011;6855;48.112;11.298;2023-05-13T06:11:49;13.93;;;9.30;;
13566;SDS011;6855;48.112;11.298;2023-05-13T06:14:18;14.30;;;9.63;;
13566;SDS011;6855;48.112;11.298;2023-05-13T06:16:45;15.90;;;9.63;;
13566;SDS011;6855;48.112;11.298;2023-05-13T06:19:12;12.40;;;9.37;;
13566;SDS011;6855;48.112;11.298;2023-05-13T06:21:40;11.60;;;8.47;;
13566;SDS011;6855;48.112;11.298;2023-05-13T06:24:09;10.90;;;7.80;;
13566;SDS011;6855;48.112;11.298;2023-05-13T06:26:36;13.77;;;9.00;;
13566;SDS011;6855;48.112;11.298;2023-05-13T06:29:03;14.00;;;9.60;;
13566;SDS011;6855;48.112;11.298;2023-05-13T06:31:31;11.33;;;9.37;;
13566;SDS011;6855;48.112;11.298;2023-05-13T06:33:59;11.67;;;9.03;;
13566;SDS011;6855;48.112;11.298;2023-05-13T06:36:26;15.97;;;10.40;;
13566;SDS011;6855;48.112;11.298;2023-05-13T06:38:53;13.57;;;9.43;;
13566;SDS011;6855;48.112;11.298;2023-05-13T06:41:20;15.00;;;9.47;;
13566;SDS011;6855;48.112;11.298;2023-05-13T06:43:47;18.33;;;9.97;;
13566;SDS011;6855;48.112;11.298;2023-05-13T06:46:14;13.40;;;8.87;;
13566;SDS011;6855;48.112;11.298;2023-05-13T06:48:43;14.80;;;9.83;;
13566;SDS011;6855;48.112;11.298;2023-05-13T06:51:10;15.50;;;9.90;;
13566;SDS011;6855;48.112;11.298;2023-05-13T06:53:37;11.63;;;9.10;;
13566;SDS011;6855;48.112;11.298;2023-05-13T06:56:05;13.67;;;9.40;;
13566;SDS011;6855;48.112;11.298;2023-05-13T06:58:32;14.77;;;10.07;;
13566;SDS011;6855;48.112;11.298;2023-05-13T07:00:59;16.00;;;9.50;;
13566;SDS011;6855;48.112;11.298;2023-05-13T07:03:27;16.87;;;9.93;;
13566;SDS011;6855;48.112;11.298;2023-05-13T07:05:55;17.93;;;10.60;;
13566;SDS011;6855;48.112;11.298;2023-05-13T07:08:22;14.57;;;9.40;;
13566;SDS011;6855;48.112;11.298;2023-05-13T07:10:49;14.07;;;9.50;;
13566;SDS011;6855;48.112;11.298;2023-05-13T07:13:17;14.10;;;9.73;;
13566;SDS011;6855;48.112;11.298;2023-05-13T07:15:44;19.50;;;9.90;;
13566;SDS011;6855;48.112;11.298;2023-05-13T07:18:12;13.27;;;8.97;;
13566;SDS011;6855;48.112;11.298;2023-05-13T07:20:39;14.53;;;9.20;;
13566;SDS011;6855;48.112;11.298;2023-05-13T07:23:08;15.87;;;8.83;;
13566;SDS011;6855;48.112;11.298;2023-05-13T07:25:35;13.23;;;8.47;;
13566;SDS011;6855;48.112;11.298;2023-05-13T07:28:02;12.87;;;9.50;;
13566;SDS011;6855;48.112;11.298;2023-05-13T07:30:30;15.23;;;9.37;;
13566;SDS011;6855;48.112;11.298;2023-05-13T07:32:57;15.40;;;8.10;;
13566;SDS011;6855;48.112;11.298;2023-05-13T07:35:24;13.33;;;8.10;;
13566;SDS011;6855;48.112;11.298;2023-05-13T07:37:51;11.03;;;8.50;;
13566;SDS011;6855;48.112;11.298;2023-05-13T07:40:20;13.53;;;9.23;;
13566;SDS011;6855;48.112;11.298;2023-05-13T07:42:47;12.50;;;8.13;;
13566;SDS011;6855;48.112;11.298;2023-05-13T07:45:14;14.00;;;8.47;;
13566;SDS011;6855;48.112;11.298;2023-05-13T07:47:41;15.17;;;9.13;;
13566;SDS011;6855;48.112;11.298;2023-05-13T07:50:09;11.57;;;8.30;;
13566;SDS011;6855;48.112;11.298;2023-05-13T07:52:36;14.97;;;8.97;;
13566;SDS011;6855;48.112;11.298;2023-05-13T07:55:03;13.50;;;7.43;;
13566;SDS011;6855;48.112;11.298;2023-05-13T07:57:32;13.63;;;8.40;;
13566;SDS011;6855;48.112;11.298;2023-05-13T07:59:59;11.77;;;7.83;;
13566;SDS011;6855;48.112;11.298;2023-05-13T08:02:27;15.00;;;8.37;;
13566;SDS011;6855;48.112;11.298;2023-05-13T08:04:58;12.20;;;7.13;;
13566;SDS011;6855;48.112;11.298;2023-05-13T08:07:26;12.60;;;7.83;;
13566;SDS011;6855;48.112;11.298;2023-05-13T08:09:53;11.83;;;8.63;;
13566;SDS011;6855;48.112;11.298;2023-05-13T08:12:20;13.37;;;9.20;;
13566;SDS011;6855;48.112;11.298;2023-05-13T08:14:49;12.20;;;8.27;;
13566;SDS011;6855;48.112;11.298;2023-05-13T08:17:16;12.00;;;8.17;;
13566;SDS011;6855;48.112;11.298;2023-05-13T08:19:43;14.37;;;7.00;;
13566;SDS011;6855;48.112;11.298;2023-05-13T08:22:11;10.57;;;7.60;;
13566;SDS011;6855;48.112;11.298;2023-05-13T08:24:38;11.40;;;7.50;;
13566;SDS011;6855;48.112;11.298;2023-05-13T08:27:07;11.17;;;7.40;;
13566;SDS011;6855;48.112;11.298;2023-05-13T08:29:34;12.30;;;8.17;;
13566;SDS011;6855;48.112;11.298;2023-05-13T08:32:03;10.43;;;7.67;;
13566;SDS011;6855;48.112;11.298;2023-05-13T08:34:31;11.37;;;7.67;;
13566;SDS011;6855;48.112;11.298;2023-05-13T08:36:58;11.47;;;7.90;;
13566;SDS011;6855;48.112;11.298;2023-05-13T08:39:25;11.20;;;8.10;;
13566;SDS011;6855;48.112;11.298;2023-05-13T08:41:52;14.20;;;8.60;;
13566;SDS011;6855;48.112;11.298;2023-05-13T08:44:22;12.13;;;7.90;;
13566;SDS011;6855;48.112;11.298;2023-05-13T08:46:56;12.77;;;7.60;;
13566;SDS011;6855;48.112;11.298;2023-05-13T08:49:27;14.20;;;8.47;;
13566;SDS011;6855;48.112;11.298;2023-05-13T08:51:54;11.57;;;8.93;;
13566;SDS011;6855;48.112;11.298;2023-05-13T08:54:21;12.90;;;8.90;;
13566;SDS011;6855;48.112;11.298;2023-05-13T08:56:49;10.47;;;7.30;;
13566;SDS011;6855;48.112;11.298;2023-05-13T08:59:16;10.30;;;8.37;;
13566;SDS011;6855;48.112;11.298;2023-05-13T09:01:44;10.87;;;7.90;;
13566;SDS011;6855;48.112;11.298;2023-05-13T09:04:11;12.70;;;7.07;;
13566;SDS011;6855;48.112;11.298;2023-05-13T09:06:40;13.23;;;8.23;;
13566;SDS011;6855;48.112;11.298;2023-05-13T09:09:07;11.37;;;8.43;;
13566;SDS011;6855;48.112;11.298;2023-05-13T09:11:34;17.07;;;9.20;;
13566;SDS011;6855;48.112;11.298;2023-05-13T09:14:04;15.87;;;10.23;;
13566;SDS011;6855;48.112;11.298;2023-05-13T09:16:35;11.17;;;8.30;;
13566;SDS011;6855;48.112;11.298;2023-05-13T09:19:03;12.27;;;8.50;;
13566;SDS011;6855;48.112;11.298;2023-05-13T09:21:31;14.90;;;10.60;;
13566;SDS011;6855;48.112;11.298;2023-05-13T09:24:07;14.97;;;9.50;;
13566;SDS011;6855;48.112;11.298;2023-05-13T09:26:34;14.83;;;9.77;;
13566;SDS011;6855;48.112;11.298;2023-05-13T09:29:21;14.10;;;8.83;;
13566;SDS011;6855;48.112;11.298;2023-05-13T09:31:50;13.20;;;9.30;;
13566;SDS011;6855;48.112;11.298;2023-05-13T09:34:23;12.27;;;9.60;;
13566;SDS011;6855;48.112;11.298;2023-05-13T09:36:54;14.23;;;9.07;;
13566;SDS011;6855;48.112;11.298;2023-05-13T09:39:22;12.93;;;8.67;;
13566;SDS011;6855;48.112;11.298;2023-05-13T09:41:50;11.70;;;8.03;;
13566;SDS011;6855;48.112;11.298;2023-05-13T09:44:18;12.53;;;9.40;;
13566;SDS011;6855;48.112;11.298;2023-05-13T09:46:45;10.30;;;7.90;;
13566;SDS011;6855;48.112;11.298;2023-05-13T09:49:13;11.50;;;7.47;;
13566;SDS011;6855;48.112;11.298;2023-05-13T09:51:41;15.20;;;8.20;;
13566;SDS011;6855;48.112;11.298;2023-05-13T09:54:08;10.03;;;7.70;;
13566;SDS011;6855;48.112;11.298;2023-05-13T09:56:37;7.77;;;5.97;;
13566;SDS011;6855;48.112;11.298;2023-05-13T09:59:04;9.33;;;6.37;;
13566;SDS011;6855;48.112;11.298;2023-05-13T10:01:31;11.00;;;6.40;;
13566;SDS011;6855;48.112;11.298;2023-05-13T10:04:01;6.67;;;5.37;;
13566;SDS011;6855;48.112;11.298;2023-05-13T10:06:30;7.50;;;5.80;;
13566;SDS011;6855;48.112;11.298;2023-05-13T10:08:58;6.27;;;5.07;;
13566;SDS011;6855;48.112;11.298;2023-05-13T10:11:27;7.70;;;5.70;;
13566;SDS011;6855;48.112;11.298;2023-05-13T10:13:59;8.30;;;5.00;;
13566;SDS011;6855;48.112;11.298;2023-05-13T10:16:27;7.70;;;6.10;;
13566;SDS011;6855;48.112;11.298;2023-05-13T10:18:55;6.67;;;5.10;;
13566;SDS011;6855;48.112;11.298;2023-05-13T10:21:22;7.87;;;5.90;;
13566;SDS011;6855;48.112;11.298;2023-05-13T10:23:49;7.90;;;5.57;;
13566;SDS011;6855;48.112;11.298;2023-05-13T10:26:17;7.77;;;5.40;;
13566;SDS011;6855;48.112;11.298;2023-05-13T10:28:45;6.80;;;4.70;;
13566;SDS011;6855;48.112;11.298;2023-05-13T10:31:14;5.40;;;4.50;;
13566;SDS011;6855;48.112;11.298;2023-05-13T10:33:42;4.83;;;4.00;;
13566;SDS011;6855;48.112;11.298;2023-05-13T10:36:18;5.73;;;4.43;;
13566;SDS011;6855;48.112;11.298;2023-05-13T10:38:57;6.60;;;4.90;;
13566;SDS011;6855;48.112;11.298;2023-05-13T10:41:49;7.20;;;5.40;;
13566;SDS011;6855;48.112;11.298;2023-05-13T10:44:22;5.97;;;4.63;;
13566;SDS011;6855;48.112;11.298;2023-05-13T10:46:51;8.93;;;5.40;;
13566;SDS011;6855;48.112;11.298;2023-05-13T10:49:21;7.00;;;4.20;;
13566;SDS011;6855;48.112;11.298;2023-05-13T10:51:50;7.40;;;5.20;;
13566;SDS011;6855;48.112;11.298;2023-05-13T10:54:17;5.60;;;4.57;;
13566;SDS011;6855;48.112;11.298;2023-05-13T10:56:45;6.47;;;5.67;;
13566;SDS011;6855;48.112;11.298;2023-05-13T10:59:12;8.07;;;5.60;;
13566;SDS011;6855;48.112;11.298;2023-05-13T11:01:41;6.73;;;5.47;;
13566;SDS011;6855;48.112;11.298;2023-05-13T11:04:13;6.80;;;5.30;;
13566;SDS011;6855;48.112;11.298;2023-05-13T11:06:41;6.80;;;5.47;;
13566;SDS011;6855;48.112;11.298;2023-05-13T11:09:11;9.93;;;5.57;;
13566;SDS011;6855;48.112;11.298;2023-05-13T11:11:38;6.90;;;5.73;;
13566;SDS011;6855;48.112;11.298;2023-05-13T11:14:07;9.03;;;5.30;;
13566;SDS011;6855;48.112;11.298;2023-05-13T11:16:34;6.83;;;5.10;;
13566;SDS011;6855;48.112;11.298;2023-05-13T11:19:19;8.53;;;5.70;;
13566;SDS011;6855;48.112;11.298;2023-05-13T11:21:50;7.50;;;5.40;;
13566;SDS011;6855;48.112;11.298;2023-05-13T11:24:18;5.90;;;4.67;;
13566;SDS011;6855;48.112;11.298;2023-05-13T11:27:11;6.83;;;4.93;;
13566;SDS011;6855;48.112;11.298;2023-05-13T11:29:48;5.57;;;3.80;;
13566;SDS011;6855;48.112;11.298;2023-05-13T11:32:45;7.03;;;4.40;;
13566;SDS011;6855;48.112;11.298;2023-05-13T11:35:21;5.53;;;3.87;;
13566;SDS011;6855;48.112;11.298;2023-05-13T11:37:50;7.57;;;4.70;;
13566;SDS011;6855;48.112;11.298;2023-05-13T11:40:22;5.33;;;4.50;;
13566;SDS011;6855;48.112;11.298;2023-05-13T11:42:51;5.50;;;4.30;;
13566;SDS011;6855;48.112;11.298;2023-05-13T11:45:24;7.20;;;4.40;;
13566;SDS011;6855;48.112;11.298;2023-05-13T11:47:51;6.40;;;5.20;;
13566;SDS011;6855;48.112;11.298;2023-05-13T11:53:12;4.40;;;3.53;;
13566;SDS011;6855;48.112;11.298;2023-05-13T11:55:49;5.83;;;3.60;;
13566;SDS011;6855;48.112;11.298;2023-05-13T11:58:59;4.77;;;3.80;;
13566;SDS011;6855;48.112;11.298;2023-05-13T12:01:24;5.80;;;4.13;;
13566;SDS011;6855;48.112;11.298;2023-05-13T12:03:59;3.90;;;3.50;;
13566;SDS011;6855;48.112;11.298;2023-05-13T12:06:27;3.10;;;2.80;;
13566;SDS011;6855;48.112;11.298;2023-05-13T12:09:00;4.70;;;3.30;;
13566;SDS011;6855;48.112;11.298;2023-05-13T12:11:33;3.53;;;3.23;;
13566;SDS011;6855;48.112;11.298;2023-05-13T12:14:15;3.50;;;3.20;;
13566;SDS011;6855;48.112;11.298;2023-05-13T12:16:43;3.40;;;3.10;;
13566;SDS011;6855;48.112;11.298;2023-05-13T12:19:12;4.17;;;3.77;;
13566;SDS011;6855;48.112;11.298;2023-05-13T12:21:40;3.70;;;3.23;;
13566;SDS011;6855;48.112;11.298;2023-05-13T12:24:18;4.00;;;3.60;;
13566;SDS011;6855;48.112;11.298;2023-05-13T12:26:46;4.17;;;3.77;;
13566;SDS011;6855;48.112;11.298;2023-05-13T12:29:14;3.97;;;3.47;;
13566;SDS011;6855;48.112;11.298;2023-05-13T12:32:00;5.07;;;4.57;;
13566;SDS011;6855;48.112;11.298;2023-05-13T12:34:29;5.67;;;3.70;;
13566;SDS011;6855;48.112;11.298;2023-05-13T12:37:09;3.03;;;2.73;;
13566;SDS011;6855;48.112;11.298;2023-05-13T12:39:43;4.47;;;3.13;;
13566;SDS011;6855;48.112;11.298;2023-05-13T12:42:14;8.00;;;4.63;;
13566;SDS011;6855;48.112;11.298;2023-05-13T12:44:54;3.37;;;3.00;;
13566;SDS011;6855;48.112;11.298;2023-05-13T12:47:28;4.63;;;4.00;;
13566;SDS011;6855;48.112;11.298;2023-05-13T12:50:05;4.87;;;3.70;;
13566;SDS011;6855;48.112;11.298;2023-05-13T12:52:33;4.40;;;4.00;;
13566;SDS011;6855;48.112;11.298;2023-05-13T12:55:06;4.20;;;3.80;;
13566;SDS011;6855;48.112;11.298;2023-05-13T12:57:33;4.40;;;3.57;;
13566;SDS011;6855;48.112;11.298;2023-05-13T13:00:01;4.00;;;3.60;;
13566;SDS011;6855;48.112;11.298;2023-05-13T13:02:29;3.13;;;2.83;;
13566;SDS011;6855;48.112;11.298;2023-05-13T13:04:56;3.80;;;3.40;;
13566;SDS011;6855;48.112;11.298;2023-05-13T13:07:23;4.93;;;3.70;;
13566;SDS011;6855;48.112;11.298;2023-05-13T13:09:51;5.20;;;3.13;;
13566;SDS011;6855;48.112;11.298;2023-05-13T13:12:20;15.00;;;6.20;;
13566;SDS011;6855;48.112;11.298;2023-05-13T13:14:47;7.53;;;4.17;;
13566;SDS011;6855;48.112;11.298;2023-05-13T13:17:15;20.37;;;6.37;;
13566;SDS011;6855;48.112;11.298;2023-05-13T13:19:42;5.13;;;2.73;;
13566;SDS011;6855;48.112;11.298;2023-05-13T13:22:09;3.17;;;2.87;;
13566;SDS011;6855;48.112;11.298;2023-05-13T13:24:36;2.63;;;2.43;;
13566;SDS011;6855;48.112;11.298;2023-05-13T13:27:04;2.70;;;2.50;;
13566;SDS011;6855;48.112;11.298;2023-05-13T13:29:33;4.37;;;2.47;;
13566;SDS011;6855;48.112;11.298;2023-05-13T13:32:00;3.03;;;2.67;;
13566;SDS011;6855;48.112;11.298;2023-05-13T13:34:27;3.10;;;2.80;;
13566;SDS011;6855;48.112;11.298;2023-05-13T13:36:54;2.60;;;2.40;;
13566;SDS011;6855;48.112;11.298;2023-05-13T13:39:25;2.10;;;1.90;;
13566;SDS011;6855;48.112;11.298;2023-05-13T13:41:52;2.47;;;2.27;;
13566;SDS011;6855;48.112;11.298;2023-05-13T13:44:19;3.33;;;2.50;;
13566;SDS011;6855;48.112;11.298;2023-05-13T13:46:47;2.90;;;2.40;;
13566;SDS011;6855;48.112;11.298;2023-05-13T13:49:15;2.73;;;2.53;;
13566;SDS011;6855;48.112;11.298;2023-05-13T13:51:43;2.90;;;2.70;;
13566;SDS011;6855;48.112;11.298;2023-05-13T13:54:11;3.17;;;2.97;;
13566;SDS011;6855;48.112;11.298;2023-05-13T13:56:38;2.40;;;2.20;;
13566;SDS011;6855;48.112;11.298;2023-05-13T13:59:05;2.60;;;2.40;;
13566;SDS011;6855;48.112;11.298;2023-05-13T14:01:32;3.90;;;3.10;;
13566;SDS011;6855;48.112;11.298;2023-05-13T14:04:10;2.50;;;2.30;;
13566;SDS011;6855;48.112;11.298;2023-05-13T14:06:39;2.80;;;2.50;;
13566;SDS011;6855;48.112;11.298;2023-05-13T14:09:06;3.20;;;3.00;;
13566;SDS011;6855;48.112;11.298;2023-05-13T14:11:34;2.33;;;2.17;;
13566;SDS011;6855;48.112;11.298;2023-05-13T14:14:02;2.60;;;2.40;;
13566;SDS011;6855;48.112;11.298;2023-05-13T14:16:29;3.10;;;2.77;;
13566;SDS011;6855;48.112;11.298;2023-05-13T14:18:56;4.03;;;3.00;;
13566;SDS011;6855;48.112;11.298;2023-05-13T14:21:25;2.80;;;2.40;;
13566;SDS011;6855;48.112;11.298;2023-05-13T14:23:52;5.80;;;2.37;;
13566;SDS011;6855;48.112;11.298;2023-05-13T14:26:19;3.17;;;2.47;;
13566;SDS011;6855;48.112;11.298;2023-05-13T14:28:47;3.00;;;2.30;;
13566;SDS011;6855;48.112;11.298;2023-05-13T14:31:14;2.30;;;2.10;;
13566;SDS011;6855;48.112;11.298;2023-05-13T14:33:41;2.57;;;2.37;;
13566;SDS011;6855;48.112;11.298;2023-05-13T14:36:08;2.50;;;2.30;;
13566;SDS011;6855;48.112;11.298;2023-05-13T14:38:41;3.13;;;2.60;;
13566;SDS011;6855;48.112;11.298;2023-05-13T14:41:08;2.77;;;2.57;;
13566;SDS011;6855;48.112;11.298;2023-05-13T14:43:36;2.70;;;2.50;;
13566;SDS011;6855;48.112;11.298;2023-05-13T14:46:03;4.47;;;3.03;;
13566;SDS011;6855;48.112;11.298;2023-05-13T14:48:31;2.87;;;2.63;;
13566;SDS011;6855;48.112;11.298;2023-05-13T14:50:58;3.10;;;2.57;;